createdAt,value
2018-03-27T00:02:11.018Z,88.01
2018-03-27T00:04:38.511Z,87.54
2018-03-27T00:07:06.013Z,87.05
2018-03-27T00:09:33.501Z,85.87
2018-03-27T00:12:01.914Z,86.51
2018-03-27T00:14:29.509Z,87.14
2018-03-27T00:16:57.965Z,87.48
2018-03-27T00:19:26.480Z,88.23
2018-03-27T00:21:54.028Z,87.83
2018-03-27T00:24:21.478Z,88.28
2018-03-27T00:27:00.634Z,87.42
2018-03-27T00:29:39.928Z,86.99
2018-03-27T00:32:19.088Z,86.21
2018-03-27T00:34:58.339Z,87.88
2018-03-27T00:37:37.539Z,88.84
2018-03-27T00:40:16.812Z,89.08
2018-03-27T00:42:52.864Z,89.17
2018-03-27T00:45:20.364Z,87.23
2018-03-27T00:47:47.853Z,87.11
2018-03-27T00:50:15.413Z,87.41
2018-03-27T00:52:43.902Z,87.88
2018-03-27T00:55:11.357Z,87.08
2018-03-27T00:57:39.757Z,87.30
2018-03-27T01:00:07.217Z,87.63
2018-03-27T01:02:34.701Z,87.86
2018-03-27T01:05:07.733Z,87.63
2018-03-27T01:07:35.285Z,88.05
2018-03-27T01:10:02.730Z,88.88
2018-03-27T01:12:30.215Z,89.39
2018-03-27T01:14:57.673Z,88.77
2018-03-27T01:17:25.158Z,89.11
2018-03-27T01:19:52.601Z,90.11
2018-03-27T01:22:21.055Z,91.21
2018-03-27T01:24:48.605Z,91.50
2018-03-27T01:27:16.089Z,91.91
2018-03-27T01:29:43.534Z,91.02
2018-03-27T01:32:12.043Z,91.11
2018-03-27T01:34:39.493Z,91.12
2018-03-27T01:37:06.940Z,91.17
2018-03-27T01:39:34.420Z,90.21
2018-03-27T01:42:01.870Z,91.07
2018-03-27T01:44:29.357Z,91.49
2018-03-27T01:46:57.742Z,90.66
2018-03-27T01:49:25.239Z,90.63
2018-03-27T01:51:52.697Z,89.91
2018-03-27T01:54:20.205Z,90.20
2018-03-27T01:56:48.593Z,89.43
2018-03-27T01:59:16.078Z,89.66
2018-03-27T02:01:43.529Z,88.75
2018-03-27T02:04:11.011Z,87.07
2018-03-27T02:06:38.464Z,87.96
2018-03-27T02:09:05.944Z,88.54
2018-03-27T02:11:39.164Z,88.40
2018-03-27T02:14:12.310Z,88.88
2018-03-27T02:16:45.273Z,89.36
2018-03-27T02:19:18.381Z,88.22
2018-03-27T02:21:45.281Z,88.74
2018-03-27T02:24:15.622Z,88.77
2018-03-27T02:26:43.078Z,89.01
2018-03-27T02:29:10.539Z,88.82
2018-03-27T02:31:39.131Z,87.52
2018-03-27T02:34:06.664Z,87.25
2018-03-27T02:36:34.228Z,86.57
2018-03-27T02:39:01.707Z,87.04
2018-03-27T02:41:29.194Z,87.04
2018-03-27T02:43:56.713Z,87.12
2018-03-27T02:46:24.197Z,86.41
2018-03-27T02:48:51.653Z,87.12
2018-03-27T02:51:19.151Z,87.09
2018-03-27T02:53:46.605Z,86.77
2018-03-27T02:56:14.087Z,87.45
2018-03-27T02:58:41.543Z,88.37
2018-03-27T03:01:10.958Z,89.40
2018-03-27T03:03:39.413Z,90.00
2018-03-27T03:06:07.820Z,89.15
2018-03-27T03:08:35.279Z,89.47
2018-03-27T03:11:02.765Z,89.01
2018-03-27T03:13:30.217Z,89.61
2018-03-27T03:15:58.668Z,89.75
2018-03-27T03:18:26.117Z,89.48
2018-03-27T03:20:53.796Z,89.07
2018-03-27T03:23:21.244Z,88.82
2018-03-27T03:25:48.710Z,87.88
2018-03-27T03:28:16.208Z,87.58
2018-03-27T03:30:43.662Z,86.44
2018-03-27T03:33:11.148Z,87.57
2018-03-27T03:35:39.559Z,87.29
2018-03-27T03:38:07.038Z,87.49
2018-03-27T03:40:34.496Z,87.46
2018-03-27T03:43:01.982Z,87.42
2018-03-27T03:45:29.442Z,87.67
2018-03-27T03:47:56.942Z,88.18
2018-03-27T03:50:24.393Z,88.29
2018-03-27T03:52:51.869Z,87.89
2018-03-27T03:55:19.318Z,87.69
2018-03-27T03:57:46.879Z,87.56
2018-03-27T04:00:14.338Z,87.87
2018-03-27T04:02:41.909Z,88.15
2018-03-27T04:05:09.357Z,86.86
2018-03-27T04:07:36.836Z,85.97
2018-03-27T04:10:04.280Z,85.42
2018-03-27T04:12:35.012Z,84.73
2018-03-27T04:15:02.548Z,86.19
2018-03-27T04:17:30.215Z,85.94
2018-03-27T04:19:57.693Z,86.78
2018-03-27T04:22:25.136Z,86.89
2018-03-27T04:24:52.613Z,86.20
2018-03-27T04:27:20.145Z,87.21
2018-03-27T04:29:47.673Z,87.35
2018-03-27T04:32:15.161Z,87.18
2018-03-27T04:34:42.640Z,87.23
2018-03-27T04:37:10.178Z,87.41
2018-03-27T04:39:37.657Z,88.16
2018-03-27T04:42:05.180Z,87.99
2018-03-27T04:44:32.662Z,87.08
2018-03-27T04:47:01.108Z,86.05
2018-03-27T04:49:28.710Z,86.12
2018-03-27T04:51:56.185Z,86.72
2018-03-27T04:54:23.689Z,87.04
2018-03-27T04:56:51.158Z,87.47
2018-03-27T04:59:18.640Z,86.02
2018-03-27T05:01:46.080Z,87.26
2018-03-27T05:04:13.558Z,87.40
2018-03-27T05:06:41.014Z,87.18
2018-03-27T05:09:08.490Z,86.19
2018-03-27T05:11:35.977Z,86.15
2018-03-27T05:14:03.433Z,86.37
2018-03-27T05:16:31.053Z,87.89
2018-03-27T05:18:58.567Z,87.70
2018-03-27T05:21:27.096Z,87.70
2018-03-27T05:26:26.256Z,87.23
2018-03-27T05:28:53.762Z,87.26
2018-03-27T05:31:21.292Z,88.08
2018-03-27T05:33:49.769Z,88.07
2018-03-27T05:36:18.258Z,86.95
2018-03-27T05:38:45.713Z,85.91
2018-03-27T05:41:13.269Z,85.70
2018-03-27T05:43:41.744Z,84.75
2018-03-27T05:46:09.233Z,83.72
2018-03-27T05:48:36.710Z,83.43
2018-03-27T05:51:04.225Z,83.93
2018-03-27T05:53:32.585Z,82.60
2018-03-27T05:56:00.128Z,81.30
2018-03-27T05:58:27.539Z,81.33
2018-03-27T06:00:55.081Z,81.85
2018-03-27T06:03:22.533Z,83.29
2018-03-27T06:05:50.025Z,81.73
2018-03-27T06:08:17.489Z,81.27
2018-03-27T06:10:45.113Z,82.34
2018-03-27T06:13:12.570Z,82.46
2018-03-27T06:15:41.014Z,82.25
2018-03-27T06:18:08.491Z,81.12
2018-03-27T06:20:35.940Z,83.19
2018-03-27T06:23:04.437Z,82.11
2018-03-27T06:25:31.900Z,81.24
2018-03-27T06:27:59.373Z,81.42
2018-03-27T06:30:26.828Z,81.59
2018-03-27T06:32:54.327Z,81.31
2018-03-27T06:35:21.785Z,80.89
2018-03-27T06:37:49.260Z,81.96
2018-03-27T06:40:16.712Z,81.47
2018-03-27T06:42:44.205Z,82.22
2018-03-27T06:45:11.660Z,81.76
2018-03-27T06:47:39.145Z,80.68
2018-03-27T06:50:06.617Z,80.34
2018-03-27T06:52:34.101Z,80.68
2018-03-27T06:55:01.563Z,80.51
2018-03-27T06:57:29.061Z,81.17
2018-03-27T06:59:56.517Z,80.61
2018-03-27T07:02:26.021Z,80.63
2018-03-27T07:04:53.492Z,80.27
2018-03-27T07:07:21.016Z,81.38
2018-03-27T07:09:48.502Z,80.24
2018-03-27T07:12:15.956Z,79.50
2018-03-27T07:14:43.501Z,78.41
2018-03-27T07:17:11.056Z,79.36
2018-03-27T07:19:38.556Z,80.15
2018-03-27T07:22:06.013Z,78.38
2018-03-27T07:24:33.502Z,78.46
2018-03-27T07:27:01.021Z,77.15
2018-03-27T07:29:28.492Z,78.14
2018-03-27T07:31:56.902Z,77.41
2018-03-27T07:34:24.394Z,76.96
2018-03-27T07:36:51.856Z,75.77
2018-03-27T07:39:19.348Z,75.29
2018-03-27T07:41:46.841Z,75.53
2018-03-27T07:44:14.418Z,76.16
2018-03-27T07:46:41.885Z,75.67
2018-03-27T07:49:09.376Z,74.77
2018-03-27T07:51:36.836Z,74.11
2018-03-27T07:54:04.293Z,74.62
2018-03-27T07:56:31.853Z,76.53
2018-03-27T07:58:59.313Z,75.93
2018-03-27T08:01:27.826Z,74.49
2018-03-27T08:03:55.283Z,74.33
2018-03-27T08:06:22.765Z,74.86
2018-03-27T08:08:50.297Z,74.60
2018-03-27T08:11:18.799Z,73.43
2018-03-27T08:13:47.160Z,72.02
2018-03-27T08:16:14.660Z,72.85
2018-03-27T08:18:42.117Z,72.34
2018-03-27T08:21:09.602Z,71.95
2018-03-27T08:23:37.052Z,70.53
2018-03-27T08:26:05.431Z,69.87
2018-03-27T08:28:33.820Z,68.66
2018-03-27T08:31:01.385Z,67.25
2018-03-27T08:33:28.823Z,69.05
2018-03-27T08:35:56.300Z,67.33
2018-03-27T08:38:25.701Z,66.19
2018-03-27T08:40:53.192Z,67.06
2018-03-27T08:43:20.652Z,66.33
2018-03-27T08:45:55.424Z,64.54
2018-03-27T08:48:22.888Z,66.00
2018-03-27T08:50:50.337Z,67.21
2018-03-27T08:53:21.685Z,66.15
2018-03-27T08:55:49.162Z,65.56
2018-03-27T08:58:16.649Z,67.26
2018-03-27T09:00:44.350Z,67.00
2018-03-27T09:03:11.814Z,66.46
2018-03-27T09:05:39.261Z,65.42
2018-03-27T09:08:06.753Z,65.60
2018-03-27T09:10:34.217Z,66.35
2018-03-27T09:13:01.701Z,64.48
2018-03-27T09:15:30.153Z,63.15
2018-03-27T09:17:57.642Z,63.80
2018-03-27T09:20:25.097Z,63.55
2018-03-27T09:22:52.602Z,63.91
2018-03-27T09:25:20.084Z,64.17
2018-03-27T09:27:47.585Z,65.20
2018-03-27T09:30:15.046Z,63.89
2018-03-27T09:32:42.537Z,62.50
2018-03-27T09:35:10.001Z,64.21
2018-03-27T09:37:40.875Z,63.21
2018-03-27T09:40:09.309Z,61.51
2018-03-27T09:42:36.801Z,60.92
2018-03-27T09:45:04.301Z,62.38
2018-03-27T09:47:31.764Z,62.43
2018-03-27T09:49:59.269Z,63.55
2018-03-27T09:52:26.725Z,63.27
2018-03-27T09:54:54.292Z,63.01
2018-03-27T09:57:21.749Z,62.09
2018-03-27T09:59:49.237Z,63.91
2018-03-27T10:02:17.319Z,63.42
2018-03-27T10:04:45.037Z,64.01
2018-03-27T10:07:12.498Z,64.14
2018-03-27T10:09:40.005Z,61.36
2018-03-27T10:12:07.463Z,62.51
2018-03-27T10:14:34.966Z,60.77
2018-03-27T10:17:02.536Z,61.97
2018-03-27T10:19:30.031Z,59.64
2018-03-27T10:21:57.497Z,59.23
2018-03-27T10:24:24.999Z,62.07
2018-03-27T10:26:52.457Z,59.67
2018-03-27T10:29:19.989Z,59.60
2018-03-27T10:31:47.450Z,59.01
2018-03-27T10:34:15.836Z,57.96
2018-03-27T10:36:43.345Z,57.50
2018-03-27T10:39:10.845Z,58.39
2018-03-27T10:41:38.353Z,56.08
2018-03-27T10:44:05.825Z,56.09
2018-03-27T10:46:33.317Z,58.59
2018-03-27T10:49:00.849Z,57.47
2018-03-27T10:51:28.406Z,59.08
2018-03-27T10:53:55.861Z,59.01
2018-03-27T10:56:24.349Z,59.86
2018-03-27T10:58:51.797Z,58.95
2018-03-27T11:01:19.272Z,59.64
2018-03-27T11:03:46.781Z,59.60
2018-03-27T11:06:14.213Z,60.18
2018-03-27T11:08:41.845Z,62.86
2018-03-27T11:11:09.405Z,62.87
2018-03-27T11:13:36.880Z,63.97
2018-03-27T11:16:04.381Z,64.38
2018-03-27T11:18:33.789Z,64.99
2018-03-27T11:21:01.276Z,64.68
2018-03-27T11:23:29.713Z,65.89
2018-03-27T11:25:58.126Z,64.97
2018-03-27T11:28:25.582Z,64.57
2018-03-27T11:30:53.146Z,64.02
2018-03-27T11:33:20.651Z,64.49
2018-03-27T11:35:48.113Z,64.24
2018-03-27T11:38:16.569Z,63.96
2018-03-27T11:40:44.029Z,63.86
2018-03-27T11:43:11.558Z,63.28
2018-03-27T11:45:39.016Z,62.06
2018-03-27T11:48:06.505Z,62.64
2018-03-27T11:50:33.975Z,63.74
2018-03-27T11:53:01.478Z,63.52
2018-03-27T11:55:29.040Z,63.34
2018-03-27T11:57:56.537Z,61.51
2018-03-27T12:00:25.021Z,59.90
2018-03-27T12:02:53.473Z,59.49
2018-03-27T12:05:20.940Z,57.50
2018-03-27T12:07:48.579Z,56.19
2018-03-27T12:10:16.042Z,56.36
2018-03-27T12:12:43.526Z,54.56
2018-03-27T12:15:10.985Z,53.72
2018-03-27T12:17:38.493Z,54.62
2018-03-27T12:20:05.982Z,53.86
2018-03-27T12:22:34.413Z,54.36
2018-03-27T12:25:03.858Z,54.39
2018-03-27T12:27:31.328Z,51.25
2018-03-27T12:29:58.825Z,50.69
2018-03-27T12:32:26.286Z,51.15
2018-03-27T12:34:53.790Z,49.90
2018-03-27T12:37:21.266Z,49.58
2018-03-27T12:39:48.758Z,49.08
2018-03-27T12:42:16.226Z,49.62
2018-03-27T12:44:43.731Z,49.74
2018-03-27T12:47:11.194Z,48.80
2018-03-27T12:49:38.686Z,49.08
2018-03-27T12:52:06.137Z,47.32
2018-03-27T12:54:34.552Z,47.66
2018-03-27T12:57:03.030Z,46.26
2018-03-27T12:59:30.529Z,46.11
2018-03-27T13:01:58.005Z,44.68
2018-03-27T13:04:25.506Z,44.17
2018-03-27T13:06:52.970Z,44.58
2018-03-27T13:09:20.478Z,44.25
2018-03-27T13:11:47.995Z,44.62
2018-03-27T13:14:16.358Z,46.36
2018-03-27T13:16:43.839Z,44.22
2018-03-27T13:19:11.378Z,45.77
2018-03-27T13:21:38.862Z,45.45
2018-03-27T13:24:06.321Z,44.76
2018-03-27T13:26:33.813Z,46.10
2018-03-27T13:29:01.283Z,46.24
2018-03-27T13:31:29.702Z,46.33
2018-03-27T13:33:57.167Z,46.33
2018-03-27T13:36:25.626Z,47.23
2018-03-27T13:38:53.105Z,47.99
2018-03-27T13:41:20.583Z,49.14
2018-03-27T13:43:48.057Z,50.28
2018-03-27T13:46:15.619Z,52.16
2018-03-27T13:48:44.021Z,52.58
2018-03-27T13:51:11.520Z,50.69
2018-03-27T13:53:38.985Z,50.40
2018-03-27T13:56:07.441Z,51.08
2018-03-27T13:58:34.902Z,52.24
2018-03-27T14:01:02.425Z,52.92
2018-03-27T14:03:29.878Z,54.62
2018-03-27T14:05:57.369Z,53.92
2018-03-27T14:08:24.821Z,54.75
2018-03-27T14:10:52.274Z,55.07
2018-03-27T14:13:19.824Z,55.75
2018-03-27T14:15:47.280Z,56.31
2018-03-27T14:18:15.758Z,55.91
2018-03-27T14:20:43.210Z,55.94
2018-03-27T14:23:10.701Z,55.54
2018-03-27T14:25:38.236Z,56.49
2018-03-27T14:28:05.788Z,55.03
2018-03-27T14:30:33.279Z,55.23
2018-03-27T14:33:00.737Z,55.16
2018-03-27T14:35:28.192Z,56.00
2018-03-27T14:37:55.678Z,56.31
2018-03-27T14:40:24.006Z,57.21
2018-03-27T14:42:51.850Z,57.34
2018-03-27T14:45:19.292Z,57.04
2018-03-27T14:47:46.790Z,56.79
2018-03-27T14:50:14.341Z,56.73
2018-03-27T14:52:41.830Z,57.24
2018-03-27T14:55:09.277Z,57.46
2018-03-27T14:57:38.699Z,57.14
2018-03-27T15:00:06.186Z,56.71
2018-03-27T15:02:33.697Z,55.96
2018-03-27T15:05:01.146Z,54.84
2018-03-27T15:07:28.601Z,55.50
2018-03-27T15:09:56.831Z,57.25
2018-03-27T15:12:25.220Z,59.02
2018-03-27T15:14:52.705Z,60.28
2018-03-27T15:17:21.226Z,62.29
2018-03-27T15:19:48.759Z,62.58
2018-03-27T15:22:16.217Z,63.90
2018-03-27T15:24:43.798Z,64.05
2018-03-27T15:27:11.287Z,65.31
2018-03-27T15:29:38.782Z,65.25
2018-03-27T15:32:06.344Z,65.49
2018-03-27T15:34:33.844Z,66.68
2018-03-27T15:37:02.225Z,67.22
2018-03-27T15:39:29.733Z,66.42
2018-03-27T15:41:58.173Z,67.25
2018-03-27T15:44:25.714Z,66.82
2018-03-27T15:46:53.194Z,68.01
2018-03-27T15:49:21.684Z,68.68
2018-03-27T15:51:50.131Z,69.13
2018-03-27T15:54:17.638Z,69.20
2018-03-27T15:56:45.155Z,69.19
2018-03-27T15:59:12.661Z,69.49
2018-03-27T16:01:40.367Z,69.91
2018-03-27T16:04:07.869Z,69.32
2018-03-27T16:06:35.366Z,69.96
2018-03-27T16:09:02.870Z,70.27
2018-03-27T16:11:30.375Z,70.32
2018-03-27T16:13:57.883Z,69.70
2018-03-27T16:16:25.377Z,69.98
2018-03-27T16:18:52.840Z,70.44
2018-03-27T16:21:20.375Z,70.82
2018-03-27T16:23:47.855Z,70.61
2018-03-27T16:26:15.344Z,70.93
2018-03-27T16:28:42.813Z,70.86
2018-03-27T16:31:10.317Z,70.80
2018-03-27T16:33:38.794Z,70.89
2018-03-27T16:36:06.290Z,70.50
2018-03-27T16:38:33.754Z,70.48
2018-03-27T16:41:01.294Z,70.51
2018-03-27T16:43:28.772Z,70.54
2018-03-27T16:45:56.542Z,70.51
2018-03-27T16:48:24.051Z,70.06
2018-03-27T16:50:51.517Z,70.19
2018-03-27T16:53:19.013Z,70.55
2018-03-27T16:55:46.470Z,71.29
2018-03-27T16:58:13.969Z,71.22
2018-03-27T17:00:43.365Z,71.69
2018-03-27T17:03:10.980Z,71.67
2018-03-27T17:05:38.440Z,71.42
2018-03-27T17:08:06.936Z,72.13
2018-03-27T17:10:36.347Z,72.44
2018-03-27T17:13:03.852Z,73.47
2018-03-27T17:15:31.308Z,73.41
2018-03-27T17:17:59.004Z,73.64
2018-03-27T17:20:26.462Z,73.61
2018-03-27T17:22:55.866Z,74.21
2018-03-27T17:25:23.355Z,74.17
2018-03-27T17:27:50.856Z,73.51
2018-03-27T17:30:18.556Z,73.48
2018-03-27T17:32:46.091Z,73.18
2018-03-27T17:35:13.560Z,73.58
2018-03-27T17:37:41.069Z,73.17
2018-03-27T17:40:08.530Z,73.16
2018-03-27T17:42:36.034Z,73.40
2018-03-27T17:45:03.492Z,73.12
2018-03-27T17:47:31.012Z,73.81
2018-03-27T17:49:59.400Z,72.92
2018-03-27T17:52:26.856Z,71.79
2018-03-27T17:54:54.333Z,71.68
2018-03-27T17:57:21.833Z,71.51
2018-03-27T17:59:49.337Z,71.52
2018-03-27T18:02:16.785Z,71.61
2018-03-27T18:04:45.384Z,72.28
2018-03-27T18:07:12.832Z,72.38
2018-03-27T18:09:40.317Z,72.82
2018-03-27T18:12:07.777Z,73.23
2018-03-27T18:14:35.325Z,73.23
2018-03-27T18:17:02.784Z,73.10
2018-03-27T18:19:30.289Z,73.13
2018-03-27T18:21:57.747Z,73.23
2018-03-27T18:24:25.257Z,73.03
2018-03-27T18:26:52.717Z,73.17
2018-03-27T18:29:20.196Z,73.13
2018-03-27T18:31:47.661Z,73.07
2018-03-27T18:34:15.162Z,72.69
2018-03-27T18:36:42.664Z,72.69
2018-03-27T18:39:11.117Z,72.83
2018-03-27T18:41:38.607Z,72.31
2018-03-27T18:44:06.069Z,72.39
2018-03-27T18:46:33.624Z,71.86
2018-03-27T18:49:01.090Z,72.01
2018-03-27T18:51:28.645Z,72.05
2018-03-27T18:53:56.113Z,72.08
2018-03-27T18:56:23.607Z,72.76
2018-03-27T18:58:51.113Z,73.12
2018-03-27T19:01:18.626Z,72.84
2018-03-27T19:03:46.086Z,72.78
2018-03-27T19:06:13.577Z,73.32
2018-03-27T19:08:41.056Z,73.11
2018-03-27T19:11:08.633Z,73.16
2018-03-27T19:13:36.088Z,73.32
2018-03-27T19:16:03.573Z,72.71
2018-03-27T19:18:31.180Z,73.05
2018-03-27T19:20:59.689Z,73.09
2018-03-27T19:23:27.171Z,72.44
2018-03-27T19:25:54.657Z,72.20
2018-03-27T19:28:22.105Z,72.38
2018-03-27T19:30:49.698Z,72.51
2018-03-27T19:33:17.162Z,72.66
2018-03-27T19:35:44.649Z,72.75
2018-03-27T19:38:12.163Z,71.83
2018-03-27T19:40:39.693Z,71.56
2018-03-27T19:43:07.172Z,71.52
2018-03-27T19:45:34.637Z,71.40
2018-03-27T19:48:02.134Z,70.93
2018-03-27T19:50:29.592Z,71.48
2018-03-27T19:52:57.066Z,71.96
2018-03-27T19:55:24.530Z,72.11
2018-03-27T19:57:52.029Z,72.74
2018-03-27T20:00:19.482Z,72.40
2018-03-27T20:02:46.969Z,72.44
2018-03-27T20:05:14.443Z,72.52
2018-03-27T20:07:41.971Z,72.22
2018-03-27T20:10:09.424Z,72.67
2018-03-27T20:12:36.913Z,72.68
2018-03-27T20:15:04.402Z,72.49
2018-03-27T20:17:31.888Z,72.53
2018-03-27T20:19:59.370Z,72.22
2018-03-27T20:22:26.895Z,72.04
2018-03-27T20:24:54.353Z,72.61
2018-03-27T20:27:21.852Z,72.53
2018-03-27T20:29:49.424Z,72.34
2018-03-27T20:32:16.937Z,72.12
2018-03-27T20:34:44.489Z,72.60
2018-03-27T20:37:12.994Z,72.79
2018-03-27T20:39:40.569Z,72.34
2018-03-27T20:42:08.022Z,72.16
2018-03-27T20:44:35.559Z,72.62
2018-03-27T20:47:03.280Z,72.68
2018-03-27T20:49:30.849Z,72.20
2018-03-27T20:52:00.297Z,71.85
2018-03-27T20:54:29.292Z,72.11
2018-03-27T20:56:56.764Z,72.04
2018-03-27T20:59:24.249Z,72.69
2018-03-27T21:01:51.728Z,71.76
2018-03-27T21:04:19.826Z,71.76
2018-03-27T21:06:47.383Z,72.44
2018-03-27T21:09:14.885Z,72.01
2018-03-27T21:11:42.341Z,72.23
2018-03-27T21:14:09.858Z,71.98
2018-03-27T21:16:40.098Z,71.72
2018-03-27T21:19:07.568Z,72.08
2018-03-27T21:21:35.065Z,72.14
2018-03-27T21:24:02.514Z,72.35
2018-03-27T21:26:30.000Z,72.82
2018-03-27T21:28:57.461Z,72.61
2018-03-27T21:31:24.981Z,72.84
2018-03-27T21:33:52.440Z,73.38
2018-03-27T21:36:19.934Z,73.62
2018-03-27T21:38:48.380Z,73.27
2018-03-27T21:41:16.800Z,73.51
2018-03-27T21:43:44.367Z,73.59
2018-03-27T21:46:11.881Z,72.71
2018-03-27T21:48:39.346Z,72.68
2018-03-27T21:51:06.828Z,72.46
2018-03-27T21:53:34.989Z,72.78
2018-03-27T21:56:02.470Z,73.19
2018-03-27T21:58:31.759Z,73.11
2018-03-27T22:00:59.276Z,73.01
2018-03-27T22:03:41.614Z,72.91
2018-03-27T22:06:09.116Z,73.02
2018-03-27T22:08:36.575Z,73.54
2018-03-27T22:11:05.066Z,73.20
2018-03-27T22:13:32.528Z,73.08
2018-03-27T22:16:00.205Z,73.55
2018-03-27T22:18:27.683Z,73.62
2018-03-27T22:20:55.240Z,73.16
2018-03-27T22:23:22.752Z,73.41
2018-03-27T22:25:50.204Z,74.14
2018-03-27T22:28:17.702Z,73.81
2018-03-27T22:30:47.148Z,73.79
2018-03-27T22:33:14.807Z,74.24
2018-03-27T22:35:42.308Z,74.30
2018-03-27T22:38:10.000Z,74.30
2018-03-27T22:40:37.500Z,74.45
2018-03-27T22:43:06.908Z,74.44
2018-03-27T22:45:34.365Z,74.00
2018-03-27T22:48:01.849Z,74.02
2018-03-27T22:50:29.446Z,73.94
2018-03-27T22:52:57.051Z,73.75
2018-03-27T22:55:24.552Z,73.82
2018-03-27T22:57:52.097Z,73.66
2018-03-27T23:00:21.477Z,74.11
2018-03-27T23:02:48.986Z,73.78
2018-03-27T23:05:16.662Z,74.06
2018-03-27T23:07:44.194Z,74.16
2018-03-27T23:10:11.684Z,74.47
2018-03-27T23:12:39.236Z,75.03
2018-03-27T23:15:06.794Z,75.20
2018-03-27T23:17:34.242Z,75.03
2018-03-27T23:20:01.790Z,75.54
2018-03-27T23:22:31.379Z,75.31
2018-03-27T23:24:58.863Z,75.35
2018-03-27T23:27:26.312Z,75.28
2018-03-27T23:29:53.844Z,76.02
2018-03-27T23:32:21.312Z,75.86
2018-03-27T23:34:48.809Z,75.12
2018-03-27T23:37:16.258Z,75.68
2018-03-27T23:39:46.017Z,76.04
2018-03-27T23:42:13.483Z,75.41
2018-03-27T23:44:40.973Z,75.16
2018-03-27T23:47:08.432Z,75.22
2018-03-27T23:49:35.921Z,75.14
2018-03-27T23:52:03.383Z,74.90
2018-03-27T23:54:30.908Z,75.58
2018-03-27T23:56:58.329Z,75.48
2018-03-27T23:59:25.808Z,75.25
